St. Maarten, Netherlands Antilles
Current Conditions -  °F | °C
As of 6:00 AM on Friday 19 Dec 2014 (Local Time) from TNCM Reporting Station
Few Clouds Few Clouds  
Wind Chill: 77°   Ceiling: Unl
Heat Index: 79°   Visibility: 6mi
Dew Point: 66°   Wind: 9mph
Humidity: 69%   Direction: 70°ENE
Pressure: 29.91"   Gusts: NA
Location:  18.05°N, 63.12°W
Report Text: TNCM 191000Z 07008KT 9999 FEW021 25/19 Q1013 A2993 NOSIG
Loading
Personal Weather Stations






























Interactive Weather Map New forecast layout! Learn more

10-Day Weather Forecast

Advertisements
Track Severe Weather on mobile